Time;durP1;ratioP1;P1;durP2;ratioP2;P2;SDS_P1;SDS_P2;PMS_P1;PMS_P2;Temp;Humidity;BMP_temperature;BMP_pressure;BME280_temperature;BME280_humidity;BME280_pressure;Samples;Min_cycle;Max_cycle;Signal;HPM_P1;HPM_P2
2022/08/03 00:00:53;;;;;;;12.10;2.75;;;;;;;56.02;8.65;100726.25;5091987;28;20123;-58
2022/08/03 00:03:19;;;;;;;10.35;2.70;;;;;;;57.13;7.78;100723.38;5078733;28;20058;-60
2022/08/03 00:05:46;;;;;;;8.43;2.20;;;;;;;55.99;8.12;100719.47;5091954;28;20033;-59
2022/08/03 00:08:13;;;;;;;10.25;2.30;;;;;;;53.68;10.22;100708.88;5091926;28;20459;-59
2022/08/03 00:10:39;;;;;;;9.55;2.40;;;;;;;53.76;10.14;100714.78;5091937;28;20494;-59
2022/08/03 00:13:06;;;;;;;10.82;2.22;;;;;;;51.52;11.67;100707.91;5090373;28;20081;-58
2022/08/03 00:15:33;;;;;;;8.95;2.35;;;;;;;51.12;11.25;100698.28;5085597;28;20028;-59
2022/08/03 00:17:59;;;;;;;10.27;2.30;;;;;;;50.62;12.06;100702.63;5091841;28;20031;-58
2022/08/03 00:20:26;;;;;;;9.35;2.25;;;;;;;49.71;12.69;100690.47;5092045;28;20355;-59
2022/08/03 00:22:53;;;;;;;17.88;2.47;;;;;;;51.20;11.41;100687.63;5091847;28;20389;-59
2022/08/03 00:25:19;;;;;;;8.50;1.77;;;;;;;51.04;11.85;100693.13;5087128;28;20470;-61
2022/08/03 00:27:46;;;;;;;9.88;1.88;;;;;;;49.22;13.18;100695.31;5082711;28;20020;-59
2022/08/03 00:30:13;;;;;;;10.35;1.98;;;;;;;50.03;12.19;100681.25;5084570;28;20487;-59
2022/08/03 00:32:42;;;;;;;8.73;1.90;;;;;;;49.30;13.06;100676.91;5094188;28;20032;-60
2022/08/03 00:35:09;;;;;;;9.45;2.20;;;;;;;49.89;12.21;100672.41;5077245;28;20043;-61
2022/08/03 00:37:35;;;;;;;8.57;1.65;;;;;;;50.06;12.12;100675.16;5095629;28;20024;-61
2022/08/03 00:40:02;;;;;;;56.95;4.10;;;;;;;50.62;12.52;100676.56;5088767;28;20082;-59
2022/08/03 00:42:29;;;;;;;5.63;1.90;;;;;;;50.29;11.95;100669.91;5093595;28;20039;-58
2022/08/03 00:44:56;;;;;;;19.35;2.17;;;;;;;50.02;12.49;100662.34;5095286;28;20070;-59
2022/08/03 00:47:22;;;;;;;11.68;1.90;;;;;;;47.77;14.29;100659.19;5095008;28;20032;-59
2022/08/03 00:49:49;;;;;;;12.43;2.60;;;;;;;45.66;16.47;100661.59;5087828;28;20042;-59
2022/08/03 00:52:16;;;;;;;9.48;1.85;;;;;;;45.35;16.88;100664.44;5086602;28;20027;-59
2022/08/03 00:54:42;;;;;;;10.73;2.10;;;;;;;45.14;16.96;100655.88;5080102;28;20510;-59
2022/08/03 00:57:09;;;;;;;7.38;1.65;;;;;;;45.45;16.90;100648.63;5091722;28;20504;-59
2022/08/03 00:59:37;;;;;;;9.70;2.20;;;;;;;45.02;16.95;100634.09;5081210;28;20020;-59
2022/08/03 01:02:04;;;;;;;15.73;2.40;;;;;;;45.12;17.00;100637.59;5085187;28;20093;-59
2022/08/03 01:04:30;;;;;;;11.90;1.90;;;;;;;45.26;16.67;100639.59;5088644;28;20028;-59
2022/08/03 01:07:03;;;;;;;8.45;2.20;;;;;;;44.69;17.44;100639.47;5078366;28;20033;-59
2022/08/03 01:09:57;;;;;;;12.82;2.30;;;;;;;44.37;17.80;100641.44;5089863;28;20032;-58
2022/08/03 01:12:52;;;;;;;9.65;1.92;;;;;;;44.43;17.70;100645.13;5087334;28;20044;-58
2022/08/03 01:15:29;;;;;;;21.25;2.33;;;;;;;44.49;17.67;100637.41;5086549;28;20032;-59
2022/08/03 01:18:04;;;;;;;13.80;2.55;;;;;;;44.94;17.42;100635.09;5094947;28;20028;-59
2022/08/03 01:20:36;;;;;;;14.27;2.13;;;;;;;45.23;17.05;100636.91;5081284;28;20036;-59
2022/08/03 01:23:40;;;;;;;14.93;2.28;;;;;;;44.60;17.59;100634.69;5091483;28;20036;-59
2022/08/03 01:26:31;;;;;;;44.83;3.53;;;;;;;44.94;17.50;100638.72;5084782;28;20035;-58
2022/08/03 01:28:57;;;;;;;19.50;2.63;;;;;;;45.07;17.23;100641.22;5078182;28;20130;-59
2022/08/03 01:31:48;;;;;;;27.27;3.30;;;;;;;45.30;16.94;100642.22;5090438;28;20036;-59
2022/08/03 01:34:18;;;;;;;8.30;1.90;;;;;;;45.34;16.85;100645.66;5085713;28;20070;-59
2022/08/03 01:36:51;;;;;;;10.57;2.20;;;;;;;44.84;17.05;100643.81;5079054;28;20033;-59
2022/08/03 01:39:20;;;;;;;30.35;2.30;;;;;;;44.62;17.68;100642.78;5077870;28;20047;-58
2022/08/03 01:41:58;;;;;;;8.73;2.25;;;;;;;43.93;18.27;100648.88;5094685;28;20032;-59
2022/08/03 01:44:29;;;;;;;9.30;2.28;;;;;;;43.65;18.54;100647.66;5085733;28;20504;-59
2022/08/03 01:46:59;;;;;;;13.70;2.30;;;;;;;42.94;19.58;100652.38;5094383;28;20042;-59
2022/08/03 01:49:29;;;;;;;14.60;2.50;;;;;;;42.84;19.58;100660.22;5089910;28;20024;-59
2022/08/03 01:51:58;;;;;;;12.15;2.10;;;;;;;42.83;19.77;100650.06;5083048;28;20522;-59
2022/08/03 01:54:27;;;;;;;11.43;2.58;;;;;;;43.22;18.84;100649.22;5081322;28;20040;-58
2022/08/03 01:56:57;;;;;;;21.13;2.67;;;;;;;43.24;18.89;100650.31;5090686;28;20024;-60
2022/08/03 01:59:25;;;;;;;25.95;3.15;;;;;;;43.45;18.69;100654.06;5078354;28;20020;-59
2022/08/03 02:01:53;;;;;;;106.35;6.05;;;;;;;43.28;19.13;100648.06;5092757;28;20024;-58
2022/08/03 02:04:23;;;;;;;54.50;5.13;;;;;;;43.11;19.43;100647.75;5093955;28;20518;-57
2022/08/03 02:06:52;;;;;;;20.70;2.92;;;;;;;42.67;19.64;100653.38;5077716;28;20034;-58
2022/08/03 02:09:21;;;;;;;81.55;6.00;;;;;;;42.39;20.52;100652.00;5076990;28;20038;-58
2022/08/03 02:11:50;;;;;;;10.52;2.28;;;;;;;41.99;20.38;100658.88;5093458;28;20507;-58
2022/08/03 02:14:19;;;;;;;11.43;2.53;;;;;;;41.35;21.31;100668.47;5084671;28;20035;-57
2022/08/03 02:16:47;;;;;;;16.73;2.50;;;;;;;41.14;21.56;100658.03;5092265;28;20016;-57
2022/08/03 02:19:15;;;;;;;16.70;2.15;;;;;;;41.29;19.96;100666.72;5092640;28;20514;-57
2022/08/03 02:21:44;;;;;;;16.77;2.60;;;;;;;41.15;19.81;100676.72;5093363;28;20032;-58
2022/08/03 02:24:11;;;;;;;13.50;2.65;;;;;;;40.74;19.59;100683.84;5092843;28;20028;-57
2022/08/03 02:26:40;;;;;;;17.13;2.88;;;;;;;40.44;19.82;100683.50;5093151;28;20015;-59
2022/08/03 02:29:13;;;;;;;33.72;4.43;;;;;;;40.28;19.87;100691.53;5093168;28;20040;-58
2022/08/03 02:31:42;;;;;;;24.52;4.30;;;;;;;40.07;20.02;100701.75;5093110;28;20059;-57
2022/08/03 02:34:13;;;;;;;24.83;4.50;;;;;;;39.96;20.39;100702.19;5090968;28;20028;-58
2022/08/03 02:36:43;;;;;;;21.48;3.30;;;;;;;39.73;20.00;100697.78;5096570;28;20028;-58
2022/08/03 02:39:14;;;;;;;45.10;5.50;;;;;;;39.57;20.28;100700.88;5079650;28;20067;-58
2022/08/03 02:41:51;;;;;;;29.70;5.05;;;;;;;39.48;20.61;100697.91;5079638;28;20101;-57
2022/08/03 02:44:26;;;;;;;27.60;4.18;;;;;;;39.41;20.66;100713.22;5089740;28;20637;-58
2022/08/03 02:46:57;;;;;;;22.17;3.15;;;;;;;39.25;20.58;100702.84;5093174;28;20028;-58
2022/08/03 02:49:26;;;;;;;22.60;2.80;;;;;;;39.18;20.66;100708.81;5086788;28;20486;-59
2022/08/03 02:51:55;;;;;;;21.08;2.80;;;;;;;39.10;21.05;100709.53;5100580;28;20036;-58
2022/08/03 02:54:25;;;;;;;31.70;4.00;;;;;;;38.99;21.02;100718.44;5081655;28;20096;-59
2022/08/03 02:56:55;;;;;;;16.25;2.85;;;;;;;38.86;21.21;100721.31;5091362;28;20039;-58
2022/08/03 02:59:23;;;;;;;17.52;2.95;;;;;;;38.82;21.51;100722.69;5087892;28;20359;-58
2022/08/03 03:01:52;;;;;;;38.90;4.60;;;;;;;38.75;21.55;100726.56;5101114;28;20077;-59
2022/08/03 03:04:20;;;;;;;26.77;3.13;;;;;;;38.69;21.23;100723.53;5099726;28;20028;-58
2022/08/03 03:06:48;;;;;;;20.20;3.13;;;;;;;38.60;21.60;100719.75;5090475;28;20043;-58
2022/08/03 19:37:04;;;;;;;9.00;1.85;;;;;;;50.52;13.83;100863.50;5110299;27;20407;-62
2022/08/03 19:39:30;;;;;;;7.43;2.20;;;;;;;52.69;12.52;100853.72;5095544;28;20036;-63
2022/08/03 19:42:06;;;;;;;7.88;1.88;;;;;;;49.61;14.41;100853.94;5088140;28;20063;-62
2022/08/03 19:44:36;;;;;;;7.57;1.92;;;;;;;52.78;11.60;100862.00;5076694;28;20501;-63
2022/08/03 19:47:13;;;;;;;8.55;1.85;;;;;;;51.93;12.69;100861.94;5078937;28;20029;-63
2022/08/03 19:49:44;;;;;;;7.60;2.10;;;;;;;52.96;12.29;100857.41;5085817;28;20360;-62
2022/08/03 19:52:13;;;;;;;13.07;1.98;;;;;;;51.75;12.99;100847.47;5089887;28;20035;-62
2022/08/03 19:54:42;;;;;;;8.50;1.85;;;;;;;53.21;11.77;100843.44;5082137;28;20035;-63
2022/08/03 19:57:10;;;;;;;7.28;1.88;;;;;;;51.84;12.82;100832.56;5081148;28;20066;-63
2022/08/03 19:59:39;;;;;;;7.47;1.88;;;;;;;52.67;12.28;100836.09;5089368;28;20478;-62
2022/08/03 20:02:07;;;;;;;6.97;1.67;;;;;;;52.15;12.86;100825.97;5086693;28;20032;-63
2022/08/03 20:04:35;;;;;;;10.65;2.20;;;;;;;50.42;14.05;100829.13;5076297;28;20028;-63
2022/08/03 20:07:03;;;;;;;8.93;1.88;;;;;;;49.87;14.47;100813.81;5081089;28;20029;-62
2022/08/03 20:09:32;;;;;;;6.72;1.80;;;;;;;51.92;13.06;100824.78;5095193;28;20047;-61
2022/08/03 20:11:58;;;;;;;4.65;2.15;;;;;;;51.75;13.37;100824.28;5087515;28;20021;-64
2022/08/03 20:14:26;;;;;;;8.05;1.85;;;;;;;53.59;11.44;100805.31;5074914;28;20486;-63
2022/08/03 20:16:53;;;;;;;5.53;1.75;;;;;;;55.23;10.42;100803.16;5080035;28;20051;-63
2022/08/03 20:19:20;;;;;;;9.18;2.22;;;;;;;52.34;13.10;100804.78;5081720;28;20085;-60
2022/08/03 20:21:49;;;;;;;29.00;3.15;;;;;;;50.50;14.40;100794.59;5071262;28;20033;-61
2022/08/03 20:24:34;;;;;;;8.23;2.00;;;;;;;48.68;15.64;100794.78;5084850;28;20036;-59
2022/08/03 20:27:02;;;;;;;7.22;2.28;;;;;;;46.50;18.05;100793.59;5079660;28;20513;-59
2022/08/03 20:29:33;;;;;;;8.60;1.80;;;;;;;46.67;18.02;100791.59;5074557;28;20074;-62
2022/08/03 20:32:00;;;;;;;19.77;2.65;;;;;;;46.16;18.41;100781.88;5086308;28;20074;-60
2022/08/03 20:34:27;;;;;;;13.15;2.45;;;;;;;46.64;17.68;100784.78;5088926;28;20124;-58
2022/08/03 20:36:54;;;;;;;9.88;2.30;;;;;;;46.67;17.81;100780.06;5088742;28;20446;-58
2022/08/03 20:39:20;;;;;;;8.43;2.33;;;;;;;44.62;20.30;100778.34;5095439;28;20446;-60
2022/08/03 20:41:47;;;;;;;11.27;2.30;;;;;;;45.06;20.19;100786.72;5088438;28;20025;-59
2022/08/03 20:44:14;;;;;;;9.93;2.55;;;;;;;45.92;19.73;100779.28;5091569;28;20095;-60
2022/08/03 20:46:41;;;;;;;5.65;2.00;;;;;;;45.91;19.13;100783.47;5097378;28;20406;-60
2022/08/03 20:49:08;;;;;;;8.45;2.08;;;;;;;44.52;20.85;100780.53;5071173;28;20023;-59
2022/08/03 20:51:35;;;;;;;11.07;2.20;;;;;;;47.40;17.66;100763.09;5060514;28;20029;-59
2022/08/03 20:54:03;;;;;;;8.00;1.95;;;;;;;48.48;16.70;100760.47;5063421;28;20035;-59
2022/08/03 20:56:32;;;;;;;7.22;2.10;;;;;;;48.58;16.83;100763.84;5061743;28;20395;-59
2022/08/03 20:59:06;;;;;;;12.63;2.30;;;;;;;47.39;18.27;100753.66;5064305;28;20071;-60
2022/08/03 21:01:36;;;;;;;10.02;2.08;;;;;;;47.08;18.33;100768.25;5059200;28;20033;-59
2022/08/03 21:04:07;;;;;;;7.75;1.80;;;;;;;50.88;14.13;100743.34;5066436;28;20033;-59
2022/08/03 21:06:37;;;;;;;11.50;1.95;;;;;;;48.11;16.84;100749.25;5061019;28;20124;-59
2022/08/03 21:09:05;;;;;;;10.15;2.20;;;;;;;52.38;13.63;100747.22;5061583;28;20426;-59
2022/08/03 21:11:42;;;;;;;15.07;2.35;;;;;;;51.50;13.92;100740.34;5060204;28;20107;-59
2022/08/03 21:14:21;;;;;;;25.83;2.50;;;;;;;48.63;16.82;100743.63;5063584;28;20024;-58
2022/08/03 21:16:50;;;;;;;15.98;2.50;;;;;;;47.08;17.32;100740.25;5061815;28;20470;-59
2022/08/03 21:19:20;;;;;;;14.52;2.25;;;;;;;48.34;15.95;100729.84;5074412;28;20049;-59
2022/08/03 21:21:48;;;;;;;8.23;1.75;;;;;;;48.73;15.05;100718.94;5059846;28;20032;-60
2022/08/03 21:24:16;;;;;;;10.27;1.70;;;;;;;48.05;15.72;100734.06;5059321;28;20036;-59
2022/08/03 21:26:46;;;;;;;6.63;1.83;;;;;;;47.52;16.84;100733.81;5059276;28;20435;-59
2022/08/03 21:29:15;;;;;;;6.70;1.70;;;;;;;45.25;18.71;100720.41;5060022;28;20491;-59
2022/08/03 21:31:43;;;;;;;10.18;1.85;;;;;;;46.49;17.16;100726.66;5066463;28;20087;-59
2022/08/03 21:34:10;;;;;;;5.45;1.83;;;;;;;48.12;15.70;100696.84;5059859;28;20089;-59
2022/08/03 21:36:37;;;;;;;5.63;1.67;;;;;;;49.24;14.47;100698.47;5058775;28;20045;-59
2022/08/03 21:39:08;;;;;;;9.35;1.98;;;;;;;50.42;14.41;100695.25;5059112;28;20621;-59
2022/08/03 21:41:36;;;;;;;7.15;1.83;;;;;;;53.29;11.80;100690.28;5059750;28;20029;-59
2022/08/03 21:44:05;;;;;;;7.40;2.03;;;;;;;51.65;13.18;100710.84;5063762;28;20025;-59
2022/08/03 21:46:38;;;;;;;7.90;2.00;;;;;;;51.77;13.19;100699.88;5065179;28;20036;-60
2022/08/03 21:49:08;;;;;;;5.63;2.00;;;;;;;53.63;11.72;100689.44;5062862;28;20116;-59
2022/08/03 21:51:37;;;;;;;10.07;1.90;;;;;;;52.64;12.28;100689.16;5060933;28;20065;-60
2022/08/03 21:54:04;;;;;;;9.93;1.90;;;;;;;52.11;12.63;100700.81;5061713;28;20020;-59
2022/08/03 21:56:41;;;;;;;8.13;2.10;;;;;;;51.79;12.63;100686.38;5059154;28;20080;-60
2022/08/03 21:59:18;;;;;;;5.78;1.58;;;;;;;54.92;10.41;100676.97;5060247;28;20029;-58
2022/08/03 22:01:47;;;;;;;8.70;2.10;;;;;;;53.80;10.76;100672.34;5062751;28;20112;-59
2022/08/03 22:04:16;;;;;;;8.48;2.05;;;;;;;55.77;9.57;100667.75;5061700;28;20029;-59
2022/08/03 22:06:45;;;;;;;5.95;2.03;;;;;;;53.55;11.49;100676.97;5061052;28;20107;-60
2022/08/03 22:09:12;;;;;;;6.55;2.30;;;;;;;54.30;9.89;100664.31;5057492;28;20100;-60
2022/08/03 22:11:39;;;;;;;5.60;1.77;;;;;;;50.08;13.35;100674.59;5060385;28;20203;-60
2022/08/03 22:14:06;;;;;;;3.63;1.50;;;;;;;49.76;13.67;100662.88;5061827;28;20026;-60
2022/08/03 22:16:33;;;;;;;7.43;1.98;;;;;;;48.40;15.24;100672.91;5060466;28;20029;-61
2022/08/03 22:18:59;;;;;;;4.55;2.25;;;;;;;48.14;15.12;100656.75;5060195;28;20017;-59
2022/08/03 22:21:28;;;;;;;5.85;1.73;;;;;;;49.23;14.29;100657.25;5044471;28;20056;-59
2022/08/03 22:23:58;;;;;;;9.95;2.22;;;;;;;49.81;14.21;100647.56;5063266;28;20024;-60
2022/08/03 22:26:30;;;;;;;7.75;2.00;;;;;;;47.05;16.39;100645.53;5059772;28;20029;-61
2022/08/03 22:28:58;;;;;;;8.45;1.80;;;;;;;48.01;15.24;100638.44;5063119;28;20124;-59
2022/08/03 22:31:25;;;;;;;12.38;2.55;;;;;;;46.60;16.47;100643.31;5061160;28;20483;-60
2022/08/03 22:33:52;;;;;;;6.85;1.60;;;;;;;45.06;17.89;100640.41;5062684;28;20044;-59
2022/08/03 22:36:22;;;;;;;7.65;2.00;;;;;;;46.03;17.55;100635.75;5063365;28;20066;-58
2022/08/03 22:38:50;;;;;;;27.00;2.72;;;;;;;46.67;16.24;100625.53;5061494;28;20027;-62
2022/08/03 22:41:18;;;;;;;8.52;1.60;;;;;;;46.64;16.00;100620.03;5061919;28;20476;-61
2022/08/03 22:43:45;;;;;;;6.20;1.65;;;;;;;46.42;15.84;100614.25;5066308;28;20495;-62
2022/08/03 22:46:14;;;;;;;8.63;1.92;;;;;;;47.24;15.82;100609.19;5069766;28;20024;-62
2022/08/03 22:48:42;;;;;;;7.95;2.45;;;;;;;46.70;16.75;100618.00;5074769;28;20038;-61
2022/08/03 22:51:09;;;;;;;5.97;2.03;;;;;;;46.34;17.51;100611.84;5071154;28;20212;-62
2022/08/03 22:53:37;;;;;;;9.15;2.38;;;;;;;47.77;16.07;100605.22;5071546;28;20059;-63
2022/08/03 22:56:04;;;;;;;6.32;2.42;;;;;;;48.22;15.46;100601.41;5073683;28;20020;-61
2022/08/03 22:58:31;;;;;;;10.45;2.50;;;;;;;50.04;14.06;100575.84;5067594;28;20119;-60
2022/08/03 23:01:06;;;;;;;11.40;2.13;;;;;;;52.68;11.52;100595.91;5070953;28;20036;-62
2022/08/03 23:03:36;;;;;;;11.40;2.15;;;;;;;52.50;12.00;100594.75;5057168;28;20438;-60
2022/08/03 23:06:04;;;;;;;12.30;2.55;;;;;;;49.69;13.78;100603.53;5059673;28;20425;-61
2022/08/03 23:08:33;;;;;;;9.15;2.30;;;;;;;50.29;13.64;100597.59;5061608;28;20090;-63
2022/08/03 23:11:07;;;;;;;8.95;2.30;;;;;;;49.14;14.69;100585.38;5060396;28;20090;-62
2022/08/03 23:13:35;;;;;;;11.63;2.50;;;;;;;47.58;15.81;100589.00;5063758;28;20028;-62
2022/08/03 23:16:10;;;;;;;13.02;2.33;;;;;;;46.79;16.47;100591.88;5061625;28;20113;-62
2022/08/03 23:18:46;;;;;;;7.95;2.15;;;;;;;44.79;18.40;100583.53;5057202;28;20045;-63
2022/08/03 23:21:15;;;;;;;7.35;2.25;;;;;;;45.89;17.03;100579.22;5067791;28;20036;-61
2022/08/03 23:23:41;;;;;;;7.57;2.03;;;;;;;46.07;17.48;100578.81;5064857;28;20038;-62
2022/08/03 23:26:08;;;;;;;5.40;2.00;;;;;;;45.95;17.77;100576.34;5075094;28;20097;-60
2022/08/03 23:28:37;;;;;;;6.45;1.95;;;;;;;46.27;16.84;100572.06;5070629;28;20411;-60
2022/08/03 23:31:07;;;;;;;9.90;2.40;;;;;;;45.67;17.78;100564.75;5068540;28;20035;-61
2022/08/03 23:33:37;;;;;;;7.10;1.95;;;;;;;45.24;17.92;100567.50;5069482;28;20528;-60
2022/08/03 23:36:05;;;;;;;7.97;2.40;;;;;;;45.35;17.84;100558.22;5085203;28;20505;-60
2022/08/03 23:38:39;;;;;;;13.30;2.30;;;;;;;44.99;18.38;100557.66;5079216;28;20040;-59
2022/08/03 23:41:08;;;;;;;10.98;2.30;;;;;;;46.01;17.29;100551.31;5081624;28;20055;-60
2022/08/03 23:43:39;;;;;;;8.70;2.25;;;;;;;45.45;17.87;100556.75;5069643;28;20170;-60
2022/08/03 23:46:06;;;;;;;7.15;1.90;;;;;;;45.23;17.67;100554.44;5069316;28;20114;-60
2022/08/03 23:48:33;;;;;;;7.85;2.22;;;;;;;43.26;20.19;100556.19;5071931;28;20024;-60
2022/08/03 23:51:08;;;;;;;6.78;2.92;;;;;;;42.99;20.47;100557.31;5071655;28;20146;-60
2022/08/03 23:54:02;;;;;;;10.43;2.10;;;;;;;42.85;20.53;100549.50;5071892;28;20036;-60
2022/08/03 23:56:48;;;;;;;9.60;2.20;;;;;;;43.32;20.35;100548.53;5067345;28;20035;-61
2022/08/03 23:59:37;;;;;;;7.55;1.75;;;;;;;43.48;20.34;100549.28;5059598;28;20041;-60
